Time;durP1;ratioP1;P1;durP2;ratioP2;P2;SDS_P1;SDS_P2;PMS_P1;PMS_P2;Temp;Humidity;BMP_temperature;BMP_pressure;BME280_temperature;BME280_humidity;BME280_pressure;Samples;Min_cycle;Max_cycle;Signal;HPM_P1;HPM_P2
2023/06/30 00:00:21;;;;;;;5.33;4.90;;;24.10;70.60;;;;;;10471302;28;20286;-77
2023/06/30 00:05:25;;;;;;;5.63;5.13;;;24.00;70.80;;;;;;10463465;28;20221;-78
2023/06/30 00:10:28;;;;;;;5.43;4.47;;;24.00;71.20;;;;;;10458775;28;20218;-77
2023/06/30 00:15:30;;;;;;;5.97;4.67;;;24.00;70.90;;;;;;10476795;28;20217;-78
2023/06/30 00:20:33;;;;;;;4.73;4.30;;;24.00;71.00;;;;;;10458029;28;20279;-78
2023/06/30 00:25:37;;;;;;;4.63;4.33;;;24.00;70.80;;;;;;10440897;28;20788;-77
2023/06/30 00:30:39;;;;;;;4.60;4.27;;;24.00;71.00;;;;;;10496111;28;20717;-79
2023/06/30 00:35:41;;;;;;;4.77;4.40;;;23.90;70.80;;;;;;10473855;28;20209;-78
2023/06/30 00:40:44;;;;;;;4.57;4.27;;;23.90;70.70;;;;;;10483535;28;20268;-77
2023/06/30 00:45:46;;;;;;;6.73;3.73;;;23.80;70.60;;;;;;10461876;28;20305;-78
2023/06/30 00:50:49;;;;;;;5.00;4.60;;;23.70;71.00;;;;;;10461810;28;20214;-78
2023/06/30 00:55:52;;;;;;;6.93;4.80;;;23.60;70.70;;;;;;10466805;28;20288;-78
2023/06/30 01:01:00;;;;;;;4.80;4.30;;;23.50;71.10;;;;;;10462626;28;20313;-76
2023/06/30 01:06:10;;;;;;;4.60;4.20;;;23.50;70.90;;;;;;10461118;28;20218;-78
2023/06/30 01:11:14;;;;;;;5.30;4.80;;;23.30;71.10;;;;;;10475791;28;20233;-79
2023/06/30 01:16:18;;;;;;;4.63;4.23;;;23.30;71.60;;;;;;10471389;28;20695;-78
2023/06/30 01:21:22;;;;;;;4.70;3.97;;;23.20;71.10;;;;;;10489787;28;20225;-76
2023/06/30 01:26:26;;;;;;;5.33;4.80;;;23.20;71.80;;;;;;10492268;28;20229;-77
2023/06/30 01:31:30;;;;;;;5.10;4.70;;;23.20;71.30;;;;;;10502412;28;20249;-78
2023/06/30 01:36:33;;;;;;;4.30;4.00;;;23.20;71.60;;;;;;10467707;28;20202;-78
2023/06/30 01:41:37;;;;;;;4.97;4.50;;;23.10;71.20;;;;;;10475725;28;20237;-78
2023/06/30 01:46:40;;;;;;;5.63;5.10;;;23.10;71.30;;;;;;10469305;28;20224;-76
2023/06/30 01:51:43;;;;;;;5.10;4.60;;;23.00;72.00;;;;;;10482143;28;20228;-76
2023/06/30 01:56:50;;;;;;;5.20;4.80;;;23.00;71.90;;;;;;10475385;28;20280;-77
2023/06/30 02:01:52;;;;;;;5.93;4.70;;;23.00;72.30;;;;;;10471859;28;20302;-78
2023/06/30 02:06:56;;;;;;;4.83;4.43;;;23.00;73.10;;;;;;10475538;28;20710;-76
2023/06/30 02:11:59;;;;;;;4.80;4.40;;;22.90;71.60;;;;;;10478787;28;20743;-78
2023/06/30 02:17:02;;;;;;;4.40;4.10;;;23.00;72.40;;;;;;10471248;28;20726;-78
2023/06/30 02:22:04;;;;;;;9.20;5.23;;;22.90;72.50;;;;;;10470621;28;20201;-78
2023/06/30 02:27:08;;;;;;;7.00;4.93;;;22.90;73.20;;;;;;10458515;28;20233;-78
2023/06/30 02:32:11;;;;;;;5.57;5.07;;;22.80;72.90;;;;;;10489443;28;20732;-76
2023/06/30 02:37:14;;;;;;;5.30;4.80;;;22.70;72.70;;;;;;10467524;28;20220;-78
2023/06/30 02:42:17;;;;;;;5.50;5.00;;;22.70;73.40;;;;;;10468157;28;20216;-77
2023/06/30 02:47:20;;;;;;;6.43;5.03;;;22.70;74.20;;;;;;10473596;28;20771;-77
2023/06/30 02:52:22;;;;;;;5.23;4.83;;;22.70;74.80;;;;;;10473143;28;20230;-78
2023/06/30 02:57:26;;;;;;;4.70;4.40;;;22.70;74.30;;;;;;10464745;28;20253;-77
2023/06/30 03:02:28;;;;;;;5.07;4.67;;;22.70;74.40;;;;;;10478679;28;20216;-78
2023/06/30 03:07:31;;;;;;;5.57;5.07;;;22.70;74.50;;;;;;10488643;28;20227;-79
2023/06/30 03:12:35;;;;;;;6.40;5.73;;;22.70;74.80;;;;;;10474665;28;20193;-79
2023/06/30 03:17:37;;;;;;;5.93;5.33;;;22.70;74.90;;;;;;10464597;28;20712;-79
2023/06/30 03:22:40;;;;;;;7.53;5.40;;;22.60;75.10;;;;;;10481590;28;20216;-77
2023/06/30 03:27:43;;;;;;;5.53;5.13;;;22.60;75.30;;;;;;10472507;28;20229;-78
2023/06/30 03:32:45;;;;;;;5.33;4.93;;;22.50;75.50;;;;;;10475804;28;20212;-77
2023/06/30 03:37:48;;;;;;;5.87;5.30;;;22.40;76.20;;;;;;10466567;28;20220;-79
2023/06/30 03:42:51;;;;;;;5.70;5.30;;;22.40;76.30;;;;;;10457106;28;20642;-79
2023/06/30 03:47:53;;;;;;;5.07;4.67;;;22.40;76.40;;;;;;10467663;28;20221;-79
2023/06/30 03:52:55;;;;;;;4.97;4.57;;;22.40;76.80;;;;;;10467706;28;20612;-78
2023/06/30 03:57:59;;;;;;;5.33;4.93;;;22.50;76.80;;;;;;10487059;28;20230;-80
2023/06/30 04:03:01;;;;;;;6.27;5.60;;;22.50;76.70;;;;;;10480977;28;20272;-78
2023/06/30 04:08:03;;;;;;;5.10;4.53;;;22.50;76.10;;;;;;10472314;28;20288;-78
2023/06/30 04:13:08;;;;;;;6.10;5.50;;;22.50;75.50;;;;;;10469265;28;20673;-79
2023/06/30 04:18:10;;;;;;;5.63;5.03;;;22.60;76.60;;;;;;10484397;28;20276;-79
2023/06/30 04:23:12;;;;;;;6.30;5.80;;;22.60;76.30;;;;;;10480533;28;20209;-78
2023/06/30 04:28:15;;;;;;;6.20;5.60;;;22.60;76.70;;;;;;10466205;28;20567;-79
2023/06/30 04:33:17;;;;;;;5.70;4.83;;;22.80;76.80;;;;;;10489456;28;20288;-79
2023/06/30 04:38:20;;;;;;;4.60;4.30;;;22.80;75.80;;;;;;10482951;28;20307;-78
2023/06/30 04:43:23;;;;;;;5.80;5.33;;;22.90;76.30;;;;;;10484893;28;20250;-78
2023/06/30 04:48:25;;;;;;;5.70;5.20;;;23.00;76.60;;;;;;10462804;28;20224;-78
2023/06/30 04:53:27;;;;;;;5.87;5.40;;;23.00;76.50;;;;;;10496328;28;20201;-77
2023/06/30 04:58:31;;;;;;;6.03;5.60;;;23.10;76.20;;;;;;10525536;22;20244;-83
2023/06/30 05:03:33;;;;;;;6.90;5.97;;;23.10;77.40;;;;;;10527736;28;20204;-80
2023/06/30 05:08:35;;;;;;;6.50;5.90;;;23.00;78.70;;;;;;10534132;28;20217;-82
2023/06/30 05:13:39;;;;;;;6.40;5.80;;;23.00;78.30;;;;;;10524611;28;20197;-82
2023/06/30 05:18:41;;;;;;;8.47;7.53;;;23.10;79.50;;;;;;10523030;28;20221;-83
2023/06/30 05:23:43;;;;;;;12.13;7.50;;;23.10;79.90;;;;;;10508944;28;20196;-82
2023/06/30 05:28:46;;;;;;;7.07;6.20;;;23.10;80.80;;;;;;10529185;28;20220;-80
2023/06/30 05:33:48;;;;;;;8.13;7.43;;;23.00;81.90;;;;;;10529970;28;20221;-83
2023/06/30 05:38:50;;;;;;;8.77;8.03;;;22.90;84.40;;;;;;10531775;28;20251;-82
2023/06/30 05:43:54;;;;;;;10.73;9.93;;;22.80;87.90;;;;;;10524666;28;20215;-82
2023/06/30 05:48:56;;;;;;;12.17;11.17;;;22.40;90.40;;;;;;10504315;28;20283;-82
2023/06/30 05:53:58;;;;;;;16.77;15.30;;;22.00;92.30;;;;;;10526419;28;20201;-82
2023/06/30 05:59:01;;;;;;;18.17;16.87;;;21.60;93.40;;;;;;10525047;28;20228;-82
2023/06/30 06:04:04;;;;;;;20.07;18.37;;;21.20;94.60;;;;;;10512638;28;20638;-81
2023/06/30 06:09:06;;;;;;;21.70;19.80;;;20.90;96.00;;;;;;10496811;28;20232;-83
2023/06/30 06:14:09;;;;;;;22.57;21.10;;;20.60;98.40;;;;;;10512040;28;20201;-83
2023/06/30 06:19:11;;;;;;;20.53;19.10;;;20.50;99.90;;;;;;10513923;28;20225;-81
2023/06/30 06:24:16;;;;;;;24.50;22.70;;;20.40;99.90;;;;;;10516863;28;20260;-81
2023/06/30 06:29:22;;;;;;;24.30;22.30;;;20.40;99.90;;;;;;10540052;28;20839;-81
2023/06/30 06:34:24;;;;;;;22.77;21.07;;;20.40;99.90;;;;;;10521555;28;20207;-81
2023/06/30 06:39:26;;;;;;;22.70;21.10;;;20.40;99.90;;;;;;10517917;28;20263;-82
2023/06/30 06:44:29;;;;;;;19.90;18.60;;;20.40;99.90;;;;;;10521630;28;20628;-81
2023/06/30 06:49:31;;;;;;;21.13;19.53;;;20.50;99.90;;;;;;10537065;28;20267;-79
2023/06/30 06:54:34;;;;;;;22.13;20.70;;;20.50;99.90;;;;;;10533457;28;20679;-82
2023/06/30 06:59:37;;;;;;;20.90;19.30;;;20.50;99.90;;;;;;10527893;28;20236;-81
2023/06/30 07:04:39;;;;;;;20.10;18.50;;;20.60;99.90;;;;;;10527929;28;20190;-81
2023/06/30 07:09:41;;;;;;;20.70;18.90;;;20.60;99.90;;;;;;10499803;28;20228;-80
2023/06/30 07:14:45;;;;;;;19.87;18.27;;;20.60;99.90;;;;;;10537275;28;20211;-81
2023/06/30 07:19:47;;;;;;;20.20;18.80;;;20.80;99.90;;;;;;10528319;28;20229;-82
2023/06/30 07:24:49;;;;;;;19.70;18.20;;;21.00;99.90;;;;;;10519460;28;20275;-82
2023/06/30 07:29:52;;;;;;;20.17;18.67;;;21.10;99.90;;;;;;10523047;28;20238;-82
2023/06/30 07:34:54;;;;;;;19.87;18.27;;;21.30;99.90;;;;;;10506441;28;20193;-80
2023/06/30 07:39:56;;;;;;;19.50;18.10;;;21.40;99.90;;;;;;10517308;28;20227;-82
2023/06/30 07:45:00;;;;;;;19.77;18.17;;;21.50;99.90;;;;;;10525911;28;20220;-81
2023/06/30 07:50:02;;;;;;;19.03;17.23;;;21.60;99.90;;;;;;10518822;28;20221;-80
2023/06/30 07:55:05;;;;;;;18.40;16.70;;;21.60;99.90;;;;;;10520975;28;20200;-81
2023/06/30 08:00:10;;;;;;;17.50;15.87;;;21.60;99.90;;;;;;10521676;28;20225;-82
2023/06/30 08:05:15;;;;;;;16.77;15.13;;;21.50;99.90;;;;;;10502700;28;20281;-81
2023/06/30 08:10:18;;;;;;;17.63;15.93;;;21.50;99.90;;;;;;10520409;28;20216;-81
2023/06/30 08:15:21;;;;;;;18.47;16.57;;;21.50;99.90;;;;;;10527074;28;20201;-81
2023/06/30 08:20:23;;;;;;;17.77;16.10;;;21.50;99.90;;;;;;10523868;28;20216;-81
2023/06/30 08:25:26;;;;;;;18.63;16.77;;;21.60;99.90;;;;;;10527264;28;20216;-82
2023/06/30 08:30:29;;;;;;;17.97;16.27;;;21.60;99.90;;;;;;10511646;28;20228;-81
2023/06/30 08:35:32;;;;;;;17.93;16.13;;;21.60;99.90;;;;;;10520785;28;20259;-81
2023/06/30 08:40:34;;;;;;;20.80;16.87;;;21.60;99.90;;;;;;10514219;28;20226;-82
2023/06/30 08:45:40;;;;;;;17.90;16.13;;;21.60;99.90;;;;;;10514543;28;20221;-81
2023/06/30 08:50:43;;;;;;;22.53;17.43;;;21.60;99.90;;;;;;10501503;28;20228;-82
2023/06/30 08:55:46;;;;;;;21.53;19.33;;;21.50;99.90;;;;;;10485725;28;20223;-79
2023/06/30 09:00:50;;;;;;;20.87;18.97;;;21.40;99.90;;;;;;10508522;28;20359;-79
2023/06/30 09:05:55;;;;;;;25.37;21.47;;;21.20;99.90;;;;;;10541655;28;20225;-82
2023/06/30 09:10:58;;;;;;;26.47;23.77;;;21.00;99.90;;;;;;10535751;28;20281;-81
2023/06/30 09:16:06;;;;;;;24.43;22.07;;;20.80;99.90;;;;;;10516254;28;20212;-83
2023/06/30 09:21:10;;;;;;;25.07;22.63;;;20.80;99.90;;;;;;10549128;28;20236;-83
2023/06/30 09:26:17;;;;;;;22.43;20.40;;;20.70;99.90;;;;;;10491306;28;20221;-84
2023/06/30 09:31:29;;;;;;;25.80;23.27;;;20.70;99.90;;;;;;10532819;28;20295;-81
2023/06/30 09:36:31;;;;;;;25.93;23.43;;;20.70;99.90;;;;;;10497749;28;20189;-81
2023/06/30 09:41:34;;;;;;;23.77;21.33;;;20.70;99.90;;;;;;10526767;28;20756;-82
2023/06/30 09:46:45;;;;;;;24.37;22.07;;;20.70;99.90;;;;;;10515757;28;20221;-82
2023/06/30 09:51:48;;;;;;;24.60;22.40;;;20.70;99.90;;;;;;10516732;28;20247;-82
2023/06/30 09:56:57;;;;;;;24.13;22.03;;;20.70;99.90;;;;;;10505931;28;20261;-82
2023/06/30 10:02:04;;;;;;;25.97;23.67;;;20.80;99.90;;;;;;10523452;28;20224;-82
2023/06/30 10:07:08;;;;;;;26.40;24.10;;;20.80;99.90;;;;;;10494536;28;20228;-82
2023/06/30 10:12:12;;;;;;;23.17;21.17;;;21.00;99.90;;;;;;10504409;28;20223;-80
2023/06/30 10:17:18;;;;;;;24.20;22.03;;;21.00;99.90;;;;;;10529439;28;20189;-81
2023/06/30 10:22:21;;;;;;;23.37;21.47;;;21.00;99.90;;;;;;10484615;28;20638;-80
2023/06/30 10:27:24;;;;;;;19.40;17.80;;;21.00;99.90;;;;;;10512091;28;20683;-82
2023/06/30 10:32:32;;;;;;;22.13;20.33;;;21.10;99.90;;;;;;10501767;28;20228;-79
2023/06/30 10:37:36;;;;;;;21.17;19.20;;;21.10;99.90;;;;;;10499886;28;20228;-81
2023/06/30 10:42:38;;;;;;;24.60;22.50;;;21.00;99.90;;;;;;10505355;28;20204;-81
2023/06/30 10:47:52;;;;;;;26.00;23.40;;;21.00;99.90;;;;;;10518446;28;20244;-83
2023/06/30 10:52:55;;;;;;;25.57;23.37;;;21.10;99.90;;;;;;10489522;28;20468;-80
2023/06/30 10:58:01;;;;;;;24.40;22.20;;;21.10;99.90;;;;;;10518437;28;20217;-78
2023/06/30 11:03:06;;;;;;;22.73;20.43;;;21.20;99.90;;;;;;10521207;28;20223;-80
2023/06/30 11:08:10;;;;;;;26.63;24.27;;;21.30;99.90;;;;;;10504327;28;20223;-81
2023/06/30 11:13:13;;;;;;;25.77;23.57;;;21.40;99.90;;;;;;10502124;28;20586;-82
2023/06/30 11:18:20;;;;;;;24.13;21.83;;;21.40;99.90;;;;;;10518491;28;20229;-79
2023/06/30 11:23:23;;;;;;;28.63;25.47;;;21.60;99.90;;;;;;10534965;28;20204;-79
2023/06/30 11:28:26;;;;;;;31.97;28.60;;;21.70;99.90;;;;;;10526685;28;20252;-82
2023/06/30 11:33:30;;;;;;;29.93;27.07;;;21.80;99.90;;;;;;10518209;28;20223;-81
2023/06/30 11:38:40;;;;;;;29.33;26.70;;;21.90;99.90;;;;;;10527589;28;20241;-81
2023/06/30 11:43:44;;;;;;;29.50;26.70;;;21.90;99.90;;;;;;10537237;28;20223;-82
2023/06/30 11:48:48;;;;;;;30.10;27.00;;;22.00;99.90;;;;;;10529228;28;20223;-80
2023/06/30 11:53:51;;;;;;;29.43;26.53;;;22.10;99.90;;;;;;10545701;28;20696;-82
2023/06/30 11:58:54;;;;;;;30.53;27.13;;;22.30;99.90;;;;;;10534794;28;20224;-82
2023/06/30 12:04:00;;;;;;;29.93;27.03;;;22.50;99.90;;;;;;10527914;28;20276;-79
2023/06/30 12:09:03;;;;;;;27.77;24.97;;;22.70;99.90;;;;;;10503043;28;20244;-82
2023/06/30 12:14:08;;;;;;;28.60;25.60;;;22.90;99.90;;;;;;10524581;28;20189;-80
2023/06/30 12:19:13;;;;;;;28.70;22.50;;;23.00;99.90;;;;;;10521207;28;20213;-82
2023/06/30 12:24:18;;;;;;;28.33;24.70;;;23.00;99.90;;;;;;10514145;28;20682;-81
2023/06/30 12:29:21;;;;;;;24.27;21.77;;;23.10;99.90;;;;;;10512820;28;20229;-82
2023/06/30 12:34:34;;;;;;;26.47;23.07;;;23.10;99.90;;;;;;10519110;28;20847;-82
2023/06/30 12:39:37;;;;;;;26.17;23.37;;;23.00;99.90;;;;;;10530039;28;20714;-81
2023/06/30 12:44:39;;;;;;;24.40;22.00;;;23.00;99.90;;;;;;10506734;28;20196;-82
2023/06/30 12:49:42;;;;;;;24.77;22.17;;;23.00;99.90;;;;;;10515087;28;20752;-80
2023/06/30 12:54:48;;;;;;;25.07;22.43;;;23.00;99.90;;;;;;10522079;28;20271;-81
2023/06/30 12:59:50;;;;;;;23.27;20.77;;;23.00;99.90;;;;;;10523629;28;20787;-82
2023/06/30 13:04:53;;;;;;;25.93;23.13;;;23.10;99.90;;;;;;10519433;28;20200;-81
2023/06/30 13:09:56;;;;;;;25.87;22.37;;;23.30;99.90;;;;;;10503023;28;20249;-82
2023/06/30 13:14:58;;;;;;;24.83;20.73;;;23.50;99.90;;;;;;10520538;28;20197;-82
2023/06/30 13:20:04;;;;;;;23.57;21.10;;;23.80;99.90;;;;;;10523007;28;20551;-83
2023/06/30 13:25:07;;;;;;;23.93;21.43;;;23.90;99.90;;;;;;10522497;28;20187;-81
2023/06/30 13:30:10;;;;;;;19.37;17.27;;;23.90;99.90;;;;;;10509077;28;20228;-83
2023/06/30 13:35:13;;;;;;;21.57;19.27;;;24.00;99.90;;;;;;10519416;28;20197;-81
2023/06/30 13:40:16;;;;;;;21.77;19.57;;;24.00;99.90;;;;;;10520019;28;20227;-81
2023/06/30 13:45:20;;;;;;;22.70;20.07;;;24.20;99.90;;;;;;10516558;28;20201;-82
2023/06/30 13:50:23;;;;;;;20.47;18.37;;;24.30;99.90;;;;;;10492181;28;20220;-83
2023/06/30 13:55:26;;;;;;;19.77;17.60;;;24.60;99.90;;;;;;10538127;28;20593;-81
2023/06/30 14:00:29;;;;;;;18.57;16.67;;;24.60;99.90;;;;;;10506084;28;20235;-81
2023/06/30 14:05:33;;;;;;;21.47;19.17;;;24.60;99.90;;;;;;10506005;28;20225;-81
2023/06/30 14:10:35;;;;;;;20.93;18.37;;;24.50;99.90;;;;;;10526078;28;20242;-80
2023/06/30 14:15:38;;;;;;;24.43;20.70;;;24.40;99.90;;;;;;10510871;28;20194;-83
2023/06/30 14:20:41;;;;;;;21.47;19.23;;;24.30;99.90;;;;;;10518650;28;20243;-83
2023/06/30 14:25:43;;;;;;;22.17;19.40;;;24.20;99.90;;;;;;10518729;28;20593;-82
2023/06/30 14:30:48;;;;;;;21.47;18.10;;;24.10;99.90;;;;;;10509471;28;20221;-82
2023/06/30 14:35:52;;;;;;;22.67;18.57;;;24.10;99.90;;;;;;10517589;28;20197;-83
2023/06/30 14:40:54;;;;;;;18.67;16.60;;;24.30;99.90;;;;;;10514138;28;20212;-82
2023/06/30 14:45:56;;;;;;;21.43;19.03;;;24.50;99.90;;;;;;10512901;28;20532;-80
2023/06/30 14:51:00;;;;;;;21.77;19.30;;;24.60;99.90;;;;;;10513129;28;20224;-82
2023/06/30 14:56:02;;;;;;;21.70;17.83;;;24.70;99.90;;;;;;10529253;28;20367;-81
2023/06/30 15:01:04;;;;;;;20.20;18.00;;;24.60;99.90;;;;;;10531469;28;20240;-83
2023/06/30 15:06:10;;;;;;;19.87;17.77;;;24.50;99.90;;;;;;10530696;28;20196;-82
2023/06/30 15:11:12;;;;;;;18.27;16.30;;;24.40;99.90;;;;;;10528880;28;20691;-82
2023/06/30 15:16:15;;;;;;;19.53;17.43;;;24.40;99.90;;;;;;10504326;28;20203;-82
2023/06/30 15:21:19;;;;;;;19.47;15.90;;;24.40;99.90;;;;;;10532774;28;20244;-81
2023/06/30 15:26:21;;;;;;;17.00;14.47;;;24.30;99.90;;;;;;10529774;28;20584;-81
2023/06/30 15:31:23;;;;;;;18.20;16.37;;;24.20;99.90;;;;;;10534723;28;20224;-82
2023/06/30 15:36:26;;;;;;;18.77;16.67;;;24.20;99.90;;;;;;10487663;28;20201;-82
2023/06/30 15:41:28;;;;;;;17.37;15.53;;;24.10;99.90;;;;;;10523968;28;20312;-82
2023/06/30 15:46:31;;;;;;;18.33;15.83;;;24.20;99.90;;;;;;10528717;28;20244;-81
2023/06/30 15:51:36;;;;;;;18.63;16.53;;;24.10;99.90;;;;;;10524158;28;20216;-82
2023/06/30 15:56:38;;;;;;;20.43;18.23;;;24.10;99.90;;;;;;10530843;28;20220;-82
2023/06/30 16:01:41;;;;;;;24.00;19.53;;;24.10;99.90;;;;;;10518063;28;20224;-81
2023/06/30 16:06:44;;;;;;;21.40;19.10;;;24.10;99.90;;;;;;10534654;28;20582;-82
2023/06/30 16:11:46;;;;;;;20.80;18.20;;;24.00;99.90;;;;;;10501112;28;20309;-81
2023/06/30 16:16:48;;;;;;;22.70;18.57;;;23.80;99.90;;;;;;10511024;28;20207;-81
2023/06/30 16:21:52;;;;;;;20.07;17.97;;;23.70;99.90;;;;;;10535025;28;20224;-82
2023/06/30 16:26:54;;;;;;;21.50;16.63;;;23.50;99.90;;;;;;10530758;28;20225;-79
2023/06/30 16:31:56;;;;;;;20.33;18.23;;;23.50;99.90;;;;;;10519721;28;20224;-82
2023/06/30 16:37:00;;;;;;;20.17;16.90;;;23.50;99.90;;;;;;10519372;28;20669;-81
2023/06/30 16:42:02;;;;;;;18.53;16.63;;;23.50;99.90;;;;;;10525121;28;20221;-83
2023/06/30 16:47:04;;;;;;;19.00;15.77;;;23.60;99.90;;;;;;10528830;28;20224;-79
2023/06/30 16:52:08;;;;;;;18.27;16.27;;;23.60;99.90;;;;;;10508468;28;20285;-82
2023/06/30 16:57:10;;;;;;;19.10;17.10;;;23.60;99.90;;;;;;10530294;28;20211;-82
2023/06/30 17:02:12;;;;;;;18.50;16.53;;;23.60;99.90;;;;;;10536165;22;20237;-81
2023/06/30 17:07:17;;;;;;;17.47;15.60;;;23.50;99.90;;;;;;10511997;28;20228;-80
2023/06/30 17:12:19;;;;;;;18.50;15.70;;;23.50;99.90;;;;;;10495908;28;20228;-79
2023/06/30 17:17:21;;;;;;;18.37;16.47;;;23.50;99.90;;;;;;10507031;28;20243;-81
2023/06/30 17:22:25;;;;;;;19.60;16.47;;;23.40;99.90;;;;;;10510217;28;20271;-79
2023/06/30 17:27:27;;;;;;;20.90;18.17;;;23.40;99.90;;;;;;10491521;28;20217;-80
2023/06/30 17:32:29;;;;;;;18.63;16.73;;;23.30;99.90;;;;;;10513565;28;20221;-81
2023/06/30 17:37:32;;;;;;;18.40;15.50;;;23.30;99.90;;;;;;10517527;28;20197;-82
2023/06/30 17:42:35;;;;;;;18.40;16.13;;;23.30;99.90;;;;;;10496964;28;20222;-79
2023/06/30 17:47:37;;;;;;;19.60;17.03;;;23.30;99.90;;;;;;10519771;28;20276;-80
2023/06/30 17:52:40;;;;;;;19.10;16.00;;;23.20;99.90;;;;;;10520621;28;20680;-80
2023/06/30 17:57:42;;;;;;;18.27;16.43;;;23.20;99.90;;;;;;10506899;28;20227;-81
2023/06/30 18:02:44;;;;;;;16.77;15.07;;;23.20;99.90;;;;;;10490493;28;20216;-81
2023/06/30 18:07:50;;;;;;;17.77;15.97;;;23.30;99.90;;;;;;10484108;28;20213;-83
2023/06/30 18:12:58;;;;;;;17.33;15.53;;;23.30;99.90;;;;;;10482642;28;20580;-83
2023/06/30 18:18:01;;;;;;;18.50;16.60;;;23.30;99.90;;;;;;10505625;28;20189;-82
2023/06/30 18:23:04;;;;;;;17.73;15.87;;;23.30;99.90;;;;;;10506677;28;20213;-84
2023/06/30 18:28:44;;;;;;;18.70;16.73;;;23.30;99.90;;;;;;10514685;28;20225;-83
2023/06/30 18:33:52;;;;;;;19.03;17.13;;;23.20;99.90;;;;;;10521359;28;20258;-83
2023/06/30 18:39:02;;;;;;;23.47;21.03;;;23.10;99.90;;;;;;10522733;28;20218;-83
2023/06/30 18:44:15;;;;;;;17.67;15.83;;;23.00;99.90;;;;;;10524464;28;20254;-80
2023/06/30 18:56:12;;;;;;;19.20;16.47;;;22.80;99.90;;;;;;10531167;28;20197;-84
2023/06/30 19:07:50;;;;;;;17.93;14.40;;;22.80;99.90;;;;;;10502786;28;20221;-82
2023/06/30 19:13:10;;;;;;;19.17;16.87;;;22.70;99.90;;;;;;10495809;28;20197;-81
2023/06/30 19:18:19;;;;;;;17.27;15.57;;;22.60;99.90;;;;;;10497434;28;20213;-82
2023/06/30 19:23:48;;;;;;;17.47;15.60;;;22.60;99.90;;;;;;10490749;28;20204;-82
2023/06/30 19:29:06;;;;;;;;;;;;;;;;;;;;;
2023/06/30 19:40:00;;;;;;;16.67;15.03;;;22.50;99.90;;;;;;10495294;28;20220;-83
2023/06/30 19:45:12;;;;;;;16.30;14.70;;;22.40;99.90;;;;;;10491181;28;20530;-83
2023/06/30 19:50:49;;;;;;;16.87;15.00;;;22.40;99.90;;;;;;10504490;28;20233;-82
2023/06/30 19:55:59;;;;;;;15.13;13.67;;;22.40;99.90;;;;;;10497221;28;20207;-82
2023/06/30 20:01:05;;;;;;;17.53;15.83;;;22.30;99.90;;;;;;10492561;28;20237;-83
2023/06/30 20:11:26;;;;;;;17.80;16.00;;;22.30;99.90;;;;;;10507309;28;20247;-82
2023/06/30 20:16:35;;;;;;;16.70;15.00;;;22.20;99.90;;;;;;10521418;28;20202;-83
2023/06/30 20:21:37;;;;;;;16.50;14.90;;;22.20;99.90;;;;;;10510348;28;20229;-82
2023/06/30 20:32:03;;;;;;;16.57;14.30;;;22.10;99.90;;;;;;10512101;28;20303;-83
2023/06/30 20:37:07;;;;;;;17.20;15.10;;;22.10;99.90;;;;;;10464846;28;20574;-83
2023/06/30 20:42:12;;;;;;;16.40;14.80;;;22.10;99.90;;;;;;10480712;28;20220;-82
2023/06/30 20:47:23;;;;;;;16.83;15.20;;;22.00;99.90;;;;;;10518441;28;20197;-82
2023/06/30 20:52:34;;;;;;;14.70;13.20;;;22.00;99.90;;;;;;10498666;28;20582;-83
2023/06/30 20:57:37;;;;;;;14.90;13.57;;;22.00;99.90;;;;;;10483941;28;20284;-82
2023/06/30 21:02:40;;;;;;;14.63;13.03;;;22.10;99.90;;;;;;10473787;28;20239;-83
2023/06/30 21:07:43;;;;;;;15.10;12.93;;;22.10;99.90;;;;;;10511049;28;20213;-82
2023/06/30 21:12:47;;;;;;;14.63;13.33;;;22.10;99.90;;;;;;10494106;28;20261;-83
2023/06/30 21:17:50;;;;;;;13.50;12.20;;;22.10;99.90;;;;;;10506795;28;20255;-83
2023/06/30 21:22:52;;;;;;;12.40;11.20;;;22.10;99.90;;;;;;10503404;28;20193;-83
2023/06/30 21:27:55;;;;;;;13.53;12.27;;;22.10;99.90;;;;;;10489914;28;20229;-83
2023/06/30 21:32:58;;;;;;;13.87;12.50;;;22.10;99.90;;;;;;10499713;28;20209;-81
2023/06/30 21:38:00;;;;;;;12.20;11.07;;;22.10;99.90;;;;;;10485012;28;20372;-83
2023/06/30 21:43:02;;;;;;;12.20;11.10;;;22.00;99.90;;;;;;10490791;28;20205;-83
2023/06/30 21:48:06;;;;;;;9.43;8.63;;;22.00;99.90;;;;;;10503645;28;20240;-82
2023/06/30 21:53:08;;;;;;;9.67;8.80;;;22.00;99.90;;;;;;10505103;28;20288;-82
2023/06/30 21:58:11;;;;;;;8.87;8.07;;;21.90;99.90;;;;;;10496149;28;20280;-83
2023/06/30 22:03:15;;;;;;;8.57;7.87;;;21.90;99.90;;;;;;10516944;28;20209;-80
2023/06/30 22:08:17;;;;;;;7.70;7.10;;;21.90;99.90;;;;;;10503760;28;20225;-82
2023/06/30 22:13:19;;;;;;;9.00;6.83;;;21.90;99.90;;;;;;10518826;28;20668;-83
2023/06/30 22:18:23;;;;;;;6.10;5.70;;;21.90;99.90;;;;;;10504687;28;20633;-82
2023/06/30 22:23:25;;;;;;;6.40;5.27;;;21.90;99.90;;;;;;10508413;28;20211;-82
2023/06/30 22:28:27;;;;;;;5.80;5.30;;;21.90;99.90;;;;;;10495293;28;20647;-82
2023/06/30 22:33:31;;;;;;;5.87;5.37;;;21.90;99.90;;;;;;10498114;28;20284;-83
2023/06/30 22:38:33;;;;;;;8.80;5.80;;;21.90;99.90;;;;;;10489727;28;20573;-81
2023/06/30 22:43:35;;;;;;;5.70;5.27;;;21.90;99.90;;;;;;10516547;28;20539;-82
2023/06/30 22:48:40;;;;;;;6.00;5.37;;;21.80;99.90;;;;;;10484540;28;20594;-82
2023/06/30 22:53:42;;;;;;;6.33;5.83;;;21.80;99.90;;;;;;10484239;28;20221;-81
2023/06/30 23:03:53;;;;;;;5.13;4.53;;;21.80;99.90;;;;;;10379920;28;20214;-78
2023/06/30 23:08:55;;;;;;;4.60;4.20;;;21.80;99.90;;;;;;10363712;28;20223;-78
2023/06/30 23:14:00;;;;;;;4.97;4.57;;;21.70;99.90;;;;;;10383005;28;20207;-77
2023/06/30 23:19:03;;;;;;;4.30;4.00;;;21.70;99.90;;;;;;10378543;28;20223;-78
2023/06/30 23:24:09;;;;;;;3.43;3.23;;;21.60;99.90;;;;;;10380323;28;20211;-78
2023/06/30 23:29:11;;;;;;;4.60;4.30;;;21.60;99.90;;;;;;10380466;28;20243;-78
2023/06/30 23:34:16;;;;;;;3.80;3.60;;;21.50;99.90;;;;;;10363401;28;20201;-78
2023/06/30 23:39:18;;;;;;;4.77;4.37;;;21.50;99.90;;;;;;10381776;28;20223;-78
2023/06/30 23:44:22;;;;;;;7.70;3.60;;;21.40;99.90;;;;;;10364328;28;20267;-78
2023/06/30 23:49:26;;;;;;;4.10;3.80;;;21.30;99.90;;;;;;10380715;28;20222;-78
2023/06/30 23:54:28;;;;;;;3.80;3.50;;;21.30;99.90;;;;;;10385064;28;20207;-78
2023/06/30 23:59:30;;;;;;;3.87;3.57;;;21.20;99.90;;;;;;10380641;28;20238;-78
